Time;durP1;ratioP1;P1;durP2;ratioP2;P2;SDS_P1;SDS_P2;PMS_P1;PMS_P2;Temp;Humidity;BMP_temperature;BMP_pressure;BME280_temperature;BME280_humidity;BME280_pressure;Samples;Min_cycle;Max_cycle;Signal;HPM_P1;HPM_P2
2021/12/17 00:05:07;;;;;;;120.10;38.57;;;8.60;99.90;;;;;;5097687;28;20207;-68
2021/12/17 00:07:35;;;;;;;112.73;37.83;;;8.60;99.90;;;;;;5096265;28;20549;-68
2021/12/17 00:10:08;;;;;;;107.97;35.70;;;8.50;99.90;;;;;;5097648;28;20169;-68
2021/12/17 00:12:34;;;;;;;135.37;41.37;;;8.50;99.90;;;;;;5097281;28;20173;-68
2021/12/17 00:15:01;;;;;;;130.57;40.00;;;8.50;99.90;;;;;;5097317;28;20193;-68
2021/12/17 00:17:31;;;;;;;115.47;40.97;;;8.50;99.90;;;;;;5097047;28;20193;-68
2021/12/17 00:51:04;;;;;;;142.50;43.83;;;8.50;99.90;;;;;;5096216;28;20164;-68
2021/12/17 00:52:39;;;;;;;148.33;44.50;;;8.50;99.90;;;;;;5091895;28;20631;-68
2021/12/17 00:55:08;;;;;;;128.07;41.57;;;8.50;99.90;;;;;;5096250;28;20578;-68
2021/12/17 00:57:39;;;;;;;146.00;45.07;;;8.50;99.90;;;;;;5096142;28;20204;-68
2021/12/17 01:00:20;;;;;;;136.00;43.70;;;8.50;99.90;;;;;;5094742;28;20165;-68
2021/12/17 01:02:48;;;;;;;121.77;42.90;;;8.50;99.90;;;;;;5096117;28;20310;-68
2021/12/17 01:05:26;;;;;;;144.90;47.43;;;8.60;99.90;;;;;;5096178;28;20505;-68
2021/12/17 01:07:55;;;;;;;150.43;44.90;;;8.60;99.90;;;;;;5094930;28;20177;-68
2021/12/17 01:10:26;;;;;;;134.70;42.57;;;8.60;99.90;;;;;;5094854;28;20169;-68
2021/12/17 01:12:53;;;;;;;128.07;40.90;;;8.60;99.90;;;;;;5096085;28;20292;-68
2021/12/17 01:15:19;;;;;;;123.10;41.73;;;8.60;99.90;;;;;;5095621;28;20314;-67
2021/12/17 01:17:50;;;;;;;133.77;44.90;;;8.60;99.90;;;;;;5095635;28;20169;-68
2021/12/17 01:23:12;;;;;;;134.77;42.20;;;8.60;99.90;;;;;;5095601;28;20244;-68
2021/12/17 01:35:19;;;;;;;123.00;40.63;;;8.60;99.90;;;;;;5095446;28;20189;-68
2021/12/17 01:36:46;;;;;;;153.60;47.80;;;8.60;99.90;;;;;;5095398;28;20215;-68
2021/12/17 01:40:17;;;;;;;143.27;45.13;;;8.60;99.90;;;;;;5095298;28;20265;-68
2021/12/17 01:42:05;;;;;;;143.53;46.20;;;8.60;99.90;;;;;;5096820;28;20187;-68
2021/12/17 01:44:32;;;;;;;137.17;43.13;;;8.60;99.90;;;;;;5097247;28;20194;-68
2021/12/17 01:46:58;;;;;;;146.93;43.20;;;8.60;99.90;;;;;;5096726;28;20170;-68
2021/12/17 02:00:16;;;;;;;158.33;45.87;;;8.50;99.90;;;;;;5094864;28;20199;-68
2021/12/17 02:02:50;;;;;;;152.33;45.77;;;8.60;99.90;;;;;;5093753;28;20704;-68
2021/12/17 02:05:16;;;;;;;156.57;49.33;;;8.50;99.90;;;;;;5094975;28;20189;-68
2021/12/17 02:07:43;;;;;;;145.13;45.07;;;8.50;99.90;;;;;;5094643;28;20219;-68
2021/12/17 02:12:55;;;;;;;163.73;47.43;;;8.50;99.90;;;;;;5094620;28;20183;-69
2021/12/17 02:28:45;;;;;;;109.30;35.87;;;8.50;99.90;;;;;;5094321;28;20226;-69
2021/12/17 02:33:37;;;;;;;108.17;36.90;;;8.50;99.90;;;;;;5094432;28;20180;-68
2021/12/17 02:36:05;;;;;;;123.60;39.30;;;8.50;99.90;;;;;;5092826;28;20205;-68
2021/12/17 02:38:39;;;;;;;109.60;37.83;;;8.50;99.90;;;;;;5092919;28;20310;-68
2021/12/17 02:46:37;;;;;;;103.33;38.20;;;8.60;99.90;;;;;;5094295;28;20172;-68
2021/12/17 02:49:06;;;;;;;108.63;39.40;;;8.60;99.90;;;;;;5094037;28;20177;-68
2021/12/17 02:51:31;;;;;;;109.40;36.33;;;8.60;99.90;;;;;;5094102;28;20216;-68
2021/12/17 02:53:59;;;;;;;142.30;43.40;;;8.60;99.90;;;;;;5093644;28;20216;-68
2021/12/17 02:56:27;;;;;;;117.10;40.50;;;8.60;99.90;;;;;;5093783;28;20327;-68
2021/12/17 02:58:54;;;;;;;139.30;41.53;;;8.60;99.90;;;;;;5093721;28;20177;-68
2021/12/17 03:01:21;;;;;;;125.10;39.83;;;8.60;99.90;;;;;;5092440;28;20169;-68
2021/12/17 03:03:50;;;;;;;118.67;41.93;;;8.60;99.90;;;;;;5093534;28;20185;-68
2021/12/17 03:06:16;;;;;;;118.17;39.90;;;8.60;99.90;;;;;;5093639;28;20172;-68
2021/12/17 03:08:46;;;;;;;141.93;42.83;;;8.60;99.90;;;;;;5092268;28;20173;-68
2021/12/17 03:11:12;;;;;;;128.47;39.67;;;8.60;99.90;;;;;;5093569;28;20169;-68
2021/12/17 03:13:39;;;;;;;142.10;44.30;;;8.60;99.90;;;;;;5093513;28;20197;-68
2021/12/17 03:16:25;;;;;;;124.13;40.10;;;8.60;99.90;;;;;;5093941;28;20193;-68
2021/12/17 03:24:30;;;;;;;129.43;39.40;;;8.50;99.90;;;;;;5093409;28;20306;-68
2021/12/17 03:26:56;;;;;;;136.37;39.80;;;8.50;99.90;;;;;;5093111;28;20255;-68
2021/12/17 03:29:22;;;;;;;114.77;39.33;;;8.50;99.90;;;;;;5093346;28;20169;-68
2021/12/17 03:31:48;;;;;;;128.87;40.30;;;8.50;99.90;;;;;;5093532;28;20538;-68
2021/12/17 03:34:18;;;;;;;129.97;39.73;;;8.50;99.90;;;;;;5093187;28;20692;-68
2021/12/17 03:36:47;;;;;;;150.00;44.17;;;8.50;99.90;;;;;;5093219;28;20188;-68
2021/12/17 03:39:14;;;;;;;145.73;43.63;;;8.50;99.90;;;;;;5093433;28;20173;-69
2021/12/17 03:41:47;;;;;;;151.60;42.60;;;8.50;99.90;;;;;;5091924;28;20173;-68
2021/12/17 03:44:12;;;;;;;119.20;37.97;;;8.40;99.90;;;;;;5091826;28;20353;-68
2021/12/17 03:46:38;;;;;;;109.70;37.00;;;8.50;99.90;;;;;;5091862;28;20268;-68
2021/12/17 03:49:04;;;;;;;98.27;37.90;;;8.50;99.90;;;;;;5091951;28;20197;-68
2021/12/17 03:51:30;;;;;;;117.07;39.13;;;8.50;99.90;;;;;;5093145;28;20240;-68
2021/12/17 03:53:59;;;;;;;111.97;39.33;;;8.50;99.90;;;;;;5093071;28;20209;-68
2021/12/17 03:56:26;;;;;;;117.10;38.67;;;8.50;99.90;;;;;;5092920;28;20246;-68
2021/12/17 03:58:54;;;;;;;113.57;38.87;;;8.50;99.90;;;;;;5093357;28;20180;-68
2021/12/17 04:01:20;;;;;;;120.03;37.23;;;8.50;99.90;;;;;;5093099;28;20225;-65
2021/12/17 04:03:46;;;;;;;124.47;41.00;;;8.50;99.90;;;;;;5093033;28;20200;-65
2021/12/17 04:06:12;;;;;;;137.57;42.07;;;8.50;99.90;;;;;;5093226;28;20184;-65
2021/12/17 04:08:38;;;;;;;138.03;42.50;;;8.50;99.90;;;;;;5093182;28;20641;-64
2021/12/17 04:11:06;;;;;;;120.80;38.60;;;8.50;99.90;;;;;;5092914;28;20173;-65
2021/12/17 04:13:36;;;;;;;132.13;44.77;;;8.50;99.90;;;;;;5093287;28;20197;-65
2021/12/17 04:16:07;;;;;;;143.10;43.33;;;8.50;99.90;;;;;;5093099;28;20660;-64
2021/12/17 04:18:35;;;;;;;121.47;39.47;;;8.50;99.90;;;;;;5092897;28;20567;-65
2021/12/17 04:21:03;;;;;;;119.50;39.70;;;8.50;99.90;;;;;;5091577;28;20197;-65
2021/12/17 04:23:31;;;;;;;125.40;40.60;;;8.50;99.90;;;;;;5092892;28;20173;-66
2021/12/17 04:25:58;;;;;;;128.00;42.17;;;8.50;99.90;;;;;;5092823;28;20164;-65
2021/12/17 04:28:24;;;;;;;119.97;39.53;;;8.50;99.90;;;;;;5091508;28;20181;-65
2021/12/17 04:30:50;;;;;;;129.33;39.73;;;8.50;99.90;;;;;;5093126;28;20170;-65
2021/12/17 04:33:16;;;;;;;125.70;40.93;;;8.50;99.90;;;;;;5091725;28;20181;-65
2021/12/17 04:35:42;;;;;;;126.00;41.40;;;8.50;99.90;;;;;;5092541;28;20269;-65
2021/12/17 04:38:10;;;;;;;123.43;39.20;;;8.50;99.90;;;;;;5094402;28;20634;-65
2021/12/17 04:40:37;;;;;;;111.13;38.60;;;8.50;99.90;;;;;;5095360;28;20206;-64
2021/12/17 04:45:41;;;;;;;140.77;43.20;;;8.50;99.90;;;;;;5096608;28;20203;-64
2021/12/17 04:59:05;;;;;;;125.90;42.77;;;8.50;99.90;;;;;;5096424;28;20277;-65
2021/12/17 05:01:32;;;;;;;129.53;41.87;;;8.50;99.90;;;;;;5095959;28;20248;-65
2021/12/17 05:03:58;;;;;;;132.90;42.03;;;8.50;99.90;;;;;;5095916;28;20189;-64
2021/12/17 05:06:28;;;;;;;121.00;38.27;;;8.50;99.90;;;;;;5095943;28;20234;-64
2021/12/17 05:08:59;;;;;;;108.43;37.40;;;8.50;99.90;;;;;;5095990;28;20159;-65
2021/12/17 05:11:48;;;;;;;123.33;40.00;;;8.50;99.90;;;;;;5096126;28;20157;-65
2021/12/17 05:19:47;;;;;;;110.43;37.23;;;8.50;99.90;;;;;;5096552;28;20253;-65
2021/12/17 05:22:13;;;;;;;116.57;39.93;;;8.50;99.90;;;;;;5096204;28;20185;-65
2021/12/17 05:24:39;;;;;;;103.60;36.07;;;8.50;99.90;;;;;;5095824;28;20185;-65
2021/12/17 05:27:05;;;;;;;85.67;34.47;;;8.50;99.90;;;;;;5096201;28;20195;-65
2021/12/17 05:29:31;;;;;;;92.73;35.67;;;8.50;99.90;;;;;;5095579;28;20178;-65
2021/12/17 05:31:57;;;;;;;86.87;34.47;;;8.50;99.90;;;;;;5096073;28;20569;-65
2021/12/17 05:34:22;;;;;;;82.63;34.33;;;8.50;99.90;;;;;;5095897;28;20220;-65
2021/12/17 05:36:48;;;;;;;79.27;32.83;;;8.50;99.90;;;;;;5095509;28;20201;-65
2021/12/17 05:39:14;;;;;;;75.87;31.57;;;8.50;99.90;;;;;;5094025;28;20203;-64
2021/12/17 05:41:40;;;;;;;79.20;31.03;;;8.50;99.90;;;;;;5093960;28;20177;-64
2021/12/17 05:44:09;;;;;;;72.93;30.57;;;8.50;99.90;;;;;;5095372;28;20186;-64
2021/12/17 05:46:53;;;;;;;79.43;33.73;;;8.50;99.90;;;;;;5094516;28;20629;-64
2021/12/17 05:49:24;;;;;;;69.80;30.47;;;8.50;99.90;;;;;;5094600;28;20158;-64
2021/12/17 05:51:50;;;;;;;69.40;29.37;;;8.50;99.90;;;;;;5093845;28;20185;-65
2021/12/17 05:54:17;;;;;;;72.07;31.07;;;8.50;99.90;;;;;;5095608;28;20673;-64
2021/12/17 05:56:44;;;;;;;93.53;36.23;;;8.50;99.90;;;;;;5095345;28;20205;-64
2021/12/17 05:59:10;;;;;;;93.53;33.67;;;8.40;99.90;;;;;;5093861;28;20268;-65
2021/12/17 06:01:36;;;;;;;94.97;34.90;;;8.40;99.90;;;;;;5095292;28;20664;-65
2021/12/17 06:04:03;;;;;;;101.23;36.73;;;8.40;99.90;;;;;;5094985;28;20219;-65
2021/12/17 06:06:35;;;;;;;81.47;32.87;;;8.40;99.90;;;;;;5093754;28;20181;-65
2021/12/17 06:09:04;;;;;;;97.27;36.07;;;8.40;99.90;;;;;;5094909;28;20177;-64
2021/12/17 06:11:30;;;;;;;101.10;34.07;;;8.40;99.90;;;;;;5093550;28;20641;-65
2021/12/17 06:13:55;;;;;;;78.80;31.20;;;8.30;99.90;;;;;;5093514;28;20208;-65
2021/12/17 06:16:21;;;;;;;86.30;33.13;;;8.30;99.90;;;;;;5094723;28;20254;-64
2021/12/17 06:18:47;;;;;;;91.27;34.43;;;8.30;99.90;;;;;;5094978;28;20180;-64
2021/12/17 06:21:12;;;;;;;84.97;33.47;;;8.30;99.90;;;;;;5093393;28;20264;-65
2021/12/17 06:23:38;;;;;;;80.60;32.10;;;8.30;99.90;;;;;;5094566;28;20582;-65
2021/12/17 06:26:05;;;;;;;80.90;30.13;;;8.30;99.90;;;;;;5094933;28;20157;-64
2021/12/17 06:28:31;;;;;;;76.63;30.27;;;8.30;99.90;;;;;;5093278;28;20181;-65
2021/12/17 06:30:57;;;;;;;76.90;30.37;;;8.30;99.90;;;;;;5094563;28;20303;-64
2021/12/17 06:33:23;;;;;;;62.60;26.07;;;8.30;99.90;;;;;;5093179;28;20184;-65
2021/12/17 06:35:48;;;;;;;62.23;26.07;;;8.30;99.90;;;;;;5094403;28;20208;-65
2021/12/17 06:38:14;;;;;;;62.33;26.03;;;8.30;99.90;;;;;;5093136;28;20699;-64
2021/12/17 06:40:40;;;;;;;62.73;26.03;;;8.30;99.90;;;;;;5093122;28;20676;-65
2021/12/17 06:43:06;;;;;;;60.43;25.97;;;8.30;99.90;;;;;;5094295;28;20193;-64
2021/12/17 06:45:55;;;;;;;66.23;27.13;;;8.40;99.90;;;;;;5094232;28;20280;-64
2021/12/17 06:48:24;;;;;;;73.57;28.07;;;8.40;99.90;;;;;;5094389;28;20230;-65
2021/12/17 06:59:08;;;;;;;58.30;23.93;;;8.40;99.90;;;;;;5094371;28;20156;-64
2021/12/17 07:17:13;;;;;;;53.10;22.63;;;8.30;99.90;;;;;;5093989;28;20543;-64
2021/12/17 07:17:32;;;;;;;47.73;23.33;;;8.30;99.90;;;;;;5093728;28;20192;-65
2021/12/17 07:35:43;;;;;;;29.70;16.27;;;8.30;99.90;;;;;;5093924;28;20246;-65
2021/12/17 07:40:54;;;;;;;31.93;17.43;;;8.30;99.90;;;;;;5093670;28;20260;-64
2021/12/17 07:43:30;;;;;;;31.10;15.70;;;8.20;99.90;;;;;;5092278;28;20544;-65
2021/12/17 07:45:57;;;;;;;32.43;16.70;;;8.20;99.90;;;;;;5093895;28;20184;-65
2021/12/17 07:48:23;;;;;;;32.50;15.47;;;8.20;99.90;;;;;;5093314;28;20645;-65
2021/12/17 07:50:50;;;;;;;30.93;14.90;;;8.20;99.90;;;;;;5093464;28;20260;-65
2021/12/17 07:53:17;;;;;;;32.27;16.10;;;8.30;99.90;;;;;;5093151;28;20185;-64
2021/12/17 07:55:44;;;;;;;35.43;16.93;;;8.30;99.90;;;;;;5093041;28;20610;-64
2021/12/17 07:58:09;;;;;;;34.20;15.87;;;8.30;99.90;;;;;;5093233;28;20172;-64
2021/12/17 08:00:35;;;;;;;30.60;16.33;;;8.30;99.90;;;;;;5093211;28;20165;-64
2021/12/17 08:03:02;;;;;;;29.93;14.87;;;8.20;99.90;;;;;;5093324;28;20552;-66
2021/12/17 08:05:27;;;;;;;31.97;14.90;;;8.20;99.90;;;;;;5093076;28;20189;-65
2021/12/17 08:07:53;;;;;;;29.30;15.57;;;8.20;99.90;;;;;;5093147;28;20720;-66
2021/12/17 08:10:19;;;;;;;26.70;15.67;;;8.20;99.90;;;;;;5093107;28;20649;-65
2021/12/17 08:12:45;;;;;;;29.53;16.53;;;8.20;99.90;;;;;;5094239;28;20169;-66
2021/12/17 08:15:12;;;;;;;34.23;17.03;;;8.30;99.90;;;;;;5096988;28;20215;-66
2021/12/17 08:28:54;;;;;;;31.63;16.73;;;8.20;99.90;;;;;;5074572;28;20230;-65
2021/12/17 08:31:21;;;;;;;32.77;15.17;;;8.20;99.90;;;;;;5094928;28;20211;-65
2021/12/17 08:33:47;;;;;;;29.33;16.27;;;8.20;99.90;;;;;;5096639;28;20190;-66
2021/12/17 08:36:14;;;;;;;32.43;15.93;;;8.20;99.90;;;;;;5096538;28;20211;-65
2021/12/17 08:38:41;;;;;;;25.53;13.90;;;8.20;99.90;;;;;;5096556;28;20203;-66
2021/12/17 08:41:09;;;;;;;30.03;14.57;;;8.20;99.90;;;;;;5097094;28;20165;-65
2021/12/17 08:43:34;;;;;;;28.23;14.37;;;8.20;99.90;;;;;;5096721;28;20166;-66
2021/12/17 08:46:00;;;;;;;25.43;13.87;;;8.20;99.90;;;;;;5096719;28;20177;-65
2021/12/17 08:48:26;;;;;;;32.13;15.20;;;8.20;99.90;;;;;;5095074;28;20217;-66
2021/12/17 08:50:52;;;;;;;29.23;14.83;;;8.20;99.90;;;;;;5096419;28;20218;-66
2021/12/17 08:53:18;;;;;;;26.77;14.30;;;8.30;99.90;;;;;;5096306;28;20641;-65
2021/12/17 08:55:45;;;;;;;26.83;14.20;;;8.30;99.90;;;;;;5096044;28;20625;-65
2021/12/17 08:58:14;;;;;;;24.27;12.80;;;8.20;99.90;;;;;;5096814;28;20165;-66
2021/12/17 09:00:40;;;;;;;25.50;13.13;;;8.20;99.90;;;;;;5096437;28;20166;-65
2021/12/17 09:03:09;;;;;;;24.97;12.57;;;8.30;99.90;;;;;;5096676;28;20173;-66
2021/12/17 09:05:39;;;;;;;23.13;13.13;;;8.30;99.90;;;;;;5095981;28;20246;-66
2021/12/17 09:08:07;;;;;;;22.73;13.57;;;8.30;99.90;;;;;;5096022;28;20681;-66
2021/12/17 09:10:33;;;;;;;21.67;12.50;;;8.30;99.90;;;;;;5095994;28;20205;-66
2021/12/17 09:12:59;;;;;;;26.30;12.67;;;8.30;99.90;;;;;;5096465;28;20594;-66
2021/12/17 09:15:25;;;;;;;20.37;12.03;;;8.30;99.90;;;;;;5095847;28;20246;-66
2021/12/17 09:17:51;;;;;;;25.13;13.30;;;8.30;99.90;;;;;;5095760;28;20661;-66
2021/12/17 09:20:17;;;;;;;24.93;13.40;;;8.30;99.90;;;;;;5095863;28;20173;-66
2021/12/17 09:22:43;;;;;;;21.03;12.10;;;8.30;99.90;;;;;;5096046;28;20173;-66
2021/12/17 09:25:10;;;;;;;23.13;13.03;;;8.40;99.90;;;;;;5095634;28;20246;-66
2021/12/17 09:27:36;;;;;;;21.90;12.00;;;8.40;99.90;;;;;;5095987;28;20204;-66
2021/12/17 09:30:05;;;;;;;20.27;12.20;;;8.40;99.90;;;;;;5095634;28;20302;-66
2021/12/17 09:32:31;;;;;;;23.43;12.43;;;8.50;99.90;;;;;;5095543;28;20188;-66
2021/12/17 09:34:58;;;;;;;25.83;12.97;;;8.50;99.90;;;;;;5095751;28;20193;-66
2021/12/17 09:37:23;;;;;;;22.73;12.30;;;8.60;99.90;;;;;;5095717;28;20208;-66
2021/12/17 09:39:49;;;;;;;20.83;12.17;;;8.60;99.90;;;;;;5095406;28;20173;-66
2021/12/17 09:42:16;;;;;;;20.23;11.83;;;8.70;99.90;;;;;;5095362;28;20265;-66
2021/12/17 09:44:41;;;;;;;26.03;13.20;;;8.70;99.90;;;;;;5095354;28;20276;-66
2021/12/17 09:47:08;;;;;;;21.93;12.13;;;8.70;99.90;;;;;;5095552;28;20208;-66
2021/12/17 09:49:34;;;;;;;23.23;12.33;;;8.70;99.90;;;;;;5095561;28;20184;-65
2021/12/17 09:52:00;;;;;;;23.53;13.90;;;8.70;99.90;;;;;;5095354;28;20539;-66
2021/12/17 09:54:26;;;;;;;29.13;13.60;;;8.70;99.90;;;;;;5095185;28;20197;-66
2021/12/17 09:56:52;;;;;;;22.00;12.23;;;8.70;99.90;;;;;;5095404;28;20209;-66
2021/12/17 09:59:18;;;;;;;20.73;11.40;;;8.70;99.90;;;;;;5093875;28;20183;-66
2021/12/17 10:01:45;;;;;;;21.03;12.03;;;8.70;99.90;;;;;;5093823;28;20188;-66
2021/12/17 10:04:30;;;;;;;15.93;9.90;;;8.70;99.90;;;;;;5093592;28;20295;-66
2021/12/17 10:07:16;;;;;;;19.47;11.27;;;8.70;99.90;;;;;;5093567;28;20181;-66
2021/12/17 10:09:53;;;;;;;16.43;10.33;;;8.70;99.90;;;;;;5094587;28;20196;-66
2021/12/17 10:12:24;;;;;;;17.70;10.23;;;8.70;99.90;;;;;;5093768;28;20188;-66
2021/12/17 10:15:02;;;;;;;15.37;10.03;;;8.70;99.90;;;;;;5094705;28;20197;-66
2021/12/17 10:17:28;;;;;;;18.00;10.60;;;8.70;99.90;;;;;;5094903;28;20197;-66
2021/12/17 10:19:56;;;;;;;17.23;9.90;;;8.70;99.90;;;;;;5094701;28;20177;-66
2021/12/17 10:22:25;;;;;;;13.47;9.43;;;8.60;99.90;;;;;;5094750;28;20176;-66
2021/12/17 10:25:02;;;;;;;15.10;9.03;;;8.60;99.90;;;;;;5094499;28;20193;-66
2021/12/17 10:27:34;;;;;;;16.17;9.07;;;8.60;99.90;;;;;;5093269;28;20173;-66
2021/12/17 10:30:11;;;;;;;14.27;8.40;;;8.60;99.90;;;;;;5094755;28;20165;-66
2021/12/17 10:32:39;;;;;;;15.07;8.87;;;8.60;99.90;;;;;;5093167;28;20629;-66
2021/12/17 10:35:09;;;;;;;17.23;9.00;;;8.60;99.90;;;;;;5093770;28;20200;-66
2021/12/17 10:37:35;;;;;;;15.80;8.90;;;8.60;99.90;;;;;;5094278;28;20243;-66
2021/12/17 10:40:14;;;;;;;13.93;8.13;;;8.60;99.90;;;;;;5092964;28;20264;-66
2021/12/17 10:42:47;;;;;;;12.10;8.00;;;8.60;99.90;;;;;;5093064;28;20258;-66
2021/12/17 10:45:23;;;;;;;14.77;8.53;;;8.60;99.90;;;;;;5094199;28;20563;-66
2021/12/17 10:54:10;;;;;;;11.63;7.53;;;8.60;99.90;;;;;;5094117;28;20249;-66
2021/12/17 10:56:40;;;;;;;11.50;7.07;;;8.60;99.90;;;;;;5094175;28;20220;-66
2021/12/17 10:59:18;;;;;;;13.93;7.83;;;8.60;99.90;;;;;;5094260;28;20200;-66
2021/12/17 11:01:54;;;;;;;10.63;7.40;;;8.60;99.90;;;;;;5092677;28;20264;-66
2021/12/17 11:04:30;;;;;;;11.13;7.40;;;8.60;99.90;;;;;;5094090;28;20254;-66
2021/12/17 11:07:01;;;;;;;11.83;6.87;;;8.60;99.90;;;;;;5092665;28;20275;-66
2021/12/17 11:09:50;;;;;;;11.33;6.77;;;8.50;99.90;;;;;;5094116;28;20183;-66
2021/12/17 11:12:29;;;;;;;10.83;7.17;;;8.50;99.90;;;;;;5093593;28;20264;-66
2021/12/17 11:15:13;;;;;;;11.63;6.87;;;8.50;99.90;;;;;;5093647;28;20242;-66
2021/12/17 11:17:44;;;;;;;11.60;7.07;;;8.60;99.90;;;;;;5092249;28;20204;-66
2021/12/17 11:20:13;;;;;;;11.00;6.73;;;8.60;99.90;;;;;;5093657;28;20198;-66
2021/12/17 11:22:41;;;;;;;11.17;6.90;;;8.60;99.90;;;;;;5094189;28;20548;-66
2021/12/17 11:25:08;;;;;;;9.23;6.40;;;8.50;99.90;;;;;;5092440;28;20595;-65
2021/12/17 11:27:34;;;;;;;9.50;6.67;;;8.50;99.90;;;;;;5094161;28;20177;-66
2021/12/17 11:30:12;;;;;;;9.83;6.13;;;8.50;99.90;;;;;;5092412;28;20675;-66
2021/12/17 11:32:38;;;;;;;8.60;6.40;;;8.50;99.90;;;;;;5094153;28;20157;-65
2021/12/17 11:35:05;;;;;;;11.17;6.60;;;8.50;99.90;;;;;;5093422;28;20196;-66
2021/12/17 11:37:31;;;;;;;9.07;5.73;;;8.50;99.90;;;;;;5093968;28;20201;-66
2021/12/17 11:40:01;;;;;;;7.77;5.47;;;8.50;99.90;;;;;;5093696;28;20184;-67
2021/12/17 11:42:30;;;;;;;8.67;5.80;;;8.40;99.90;;;;;;5093524;28;20252;-66
2021/12/17 11:47:45;;;;;;;9.17;5.73;;;8.40;99.90;;;;;;5094873;28;20745;-67
2021/12/17 11:50:16;;;;;;;9.70;6.07;;;8.40;99.90;;;;;;5097812;28;20272;-67
2021/12/17 11:52:45;;;;;;;10.07;5.70;;;8.40;99.90;;;;;;5097565;28;20234;-67
2021/12/17 11:55:35;;;;;;;11.27;6.23;;;8.40;99.90;;;;;;5097365;28;20205;-67
2021/12/17 11:58:09;;;;;;;10.67;6.70;;;8.30;99.90;;;;;;5097667;28;20202;-67
2021/12/17 12:00:41;;;;;;;10.33;6.73;;;8.30;99.90;;;;;;5097380;28;20217;-67
2021/12/17 12:03:12;;;;;;;8.90;6.30;;;8.30;99.90;;;;;;5097342;28;20180;-67
2021/12/17 12:05:40;;;;;;;10.77;6.97;;;8.30;99.90;;;;;;5095872;28;20197;-67
2021/12/17 12:08:28;;;;;;;8.87;6.10;;;8.30;99.90;;;;;;5095910;28;20177;-67
2021/12/17 12:11:27;;;;;;;8.60;5.60;;;8.30;99.90;;;;;;5097146;28;20181;-67
2021/12/17 12:13:55;;;;;;;8.53;5.70;;;8.20;99.90;;;;;;5088099;28;20258;-67
2021/12/17 12:16:26;;;;;;;9.93;5.67;;;8.10;99.90;;;;;;5097263;28;20563;-67
2021/12/17 12:19:07;;;;;;;7.77;5.47;;;8.10;99.90;;;;;;5097118;28;20179;-66
2021/12/17 12:21:35;;;;;;;6.97;5.30;;;8.10;99.90;;;;;;5095782;28;20302;-67
2021/12/17 12:24:14;;;;;;;7.93;5.60;;;8.10;99.90;;;;;;5096810;28;20250;-67
2021/12/17 12:26:49;;;;;;;6.80;5.00;;;8.10;99.90;;;;;;5096857;28;20177;-67
2021/12/17 12:29:21;;;;;;;7.43;5.50;;;8.10;99.90;;;;;;5097316;28;20214;-67
2021/12/17 12:32:19;;;;;;;8.83;5.60;;;8.10;99.90;;;;;;5098691;28;20149;-66
2021/12/17 12:34:46;;;;;;;9.10;5.70;;;8.10;99.90;;;;;;5093172;28;20205;-65
2021/12/17 12:37:32;;;;;;;7.20;4.80;;;8.10;99.90;;;;;;5096536;28;20207;-65
2021/12/17 12:39:58;;;;;;;7.20;5.40;;;8.20;99.90;;;;;;5097535;28;20196;-65
2021/12/17 12:42:31;;;;;;;6.47;5.73;;;8.10;99.90;;;;;;5097850;28;20514;-66
2021/12/17 12:44:57;;;;;;;7.67;5.80;;;8.10;99.90;;;;;;5097244;28;20193;-68
2021/12/17 12:47:26;;;;;;;7.87;5.83;;;8.20;99.90;;;;;;5095431;28;20169;-67
2021/12/17 12:50:04;;;;;;;10.37;6.13;;;8.20;99.90;;;;;;5095051;28;20188;-68
2021/12/17 12:52:45;;;;;;;10.27;6.10;;;8.20;99.90;;;;;;5096466;28;20284;-63
2021/12/17 12:55:33;;;;;;;7.90;6.23;;;8.20;99.90;;;;;;5096648;28;20270;-67
2021/12/17 12:57:59;;;;;;;9.57;6.27;;;8.30;99.90;;;;;;5095543;28;20189;-64
2021/12/17 13:00:34;;;;;;;9.30;6.40;;;8.30;99.90;;;;;;5096612;28;20214;-65
2021/12/17 13:03:10;;;;;;;7.60;6.10;;;8.20;99.90;;;;;;5096852;28;20174;-65
2021/12/17 13:05:37;;;;;;;8.43;6.40;;;8.20;99.90;;;;;;5098259;28;20181;-67
2021/12/17 13:08:05;;;;;;;8.37;6.00;;;8.20;99.90;;;;;;5098953;28;20173;-65
2021/12/17 13:10:35;;;;;;;8.53;7.17;;;8.20;99.90;;;;;;5096230;28;20532;-65
2021/12/17 13:13:28;;;;;;;14.97;9.40;;;8.20;99.90;;;;;;5096567;28;20226;-65
2021/12/17 13:26:34;;;;;;;16.87;9.60;;;8.10;99.90;;;;;;5096358;28;20165;-65
2021/12/17 13:29:12;;;;;;;15.17;9.17;;;8.10;99.90;;;;;;5096020;28;20166;-65
2021/12/17 13:32:02;;;;;;;15.90;9.47;;;8.00;99.90;;;;;;5095585;28;20157;-65
2021/12/17 13:34:35;;;;;;;14.47;9.33;;;8.00;99.90;;;;;;5095702;28;20197;-66
2021/12/17 13:37:14;;;;;;;16.63;9.47;;;8.00;99.90;;;;;;5096012;28;20185;-66
2021/12/17 13:39:40;;;;;;;13.10;8.67;;;8.00;99.90;;;;;;5096068;28;20153;-65
2021/12/17 13:42:07;;;;;;;14.27;9.30;;;8.00;99.90;;;;;;5095413;28;20176;-66
2021/12/17 13:44:42;;;;;;;18.00;8.90;;;8.00;99.90;;;;;;5095857;28;20196;-65
2021/12/17 13:47:14;;;;;;;15.23;8.90;;;8.00;99.90;;;;;;5095913;28;20549;-65
2021/12/17 13:49:50;;;;;;;12.73;8.50;;;7.90;99.90;;;;;;5095283;28;20180;-65
2021/12/17 13:52:19;;;;;;;11.93;8.07;;;8.00;99.90;;;;;;5095339;28;20273;-66
2021/12/17 13:54:48;;;;;;;11.87;8.07;;;8.00;99.90;;;;;;5095440;28;20226;-66
2021/12/17 13:57:17;;;;;;;12.47;8.43;;;7.90;99.90;;;;;;5095064;28;20288;-66
2021/12/17 13:59:45;;;;;;;12.60;8.27;;;7.90;99.90;;;;;;5095134;28;20256;-66
2021/12/17 14:02:22;;;;;;;11.93;9.13;;;7.90;99.90;;;;;;5093804;28;20177;-65
2021/12/17 14:05:15;;;;;;;10.63;7.83;;;7.90;99.90;;;;;;5094962;28;20196;-65
2021/12/17 14:07:41;;;;;;;11.30;7.80;;;7.90;99.90;;;;;;5095207;28;20244;-65
2021/12/17 14:10:19;;;;;;;12.77;8.00;;;7.90;99.90;;;;;;5094077;28;20303;-66
2021/12/17 14:12:45;;;;;;;10.93;8.53;;;7.90;99.90;;;;;;5095148;28;20197;-66
2021/12/17 14:15:20;;;;;;;13.77;7.77;;;7.90;99.90;;;;;;5094779;28;20197;-66
2021/12/17 14:17:52;;;;;;;10.63;7.60;;;7.90;99.90;;;;;;5094975;28;20199;-66
2021/12/17 14:20:38;;;;;;;12.60;8.33;;;7.80;99.90;;;;;;5094982;28;20169;-66
2021/12/17 14:23:07;;;;;;;10.77;7.50;;;7.80;99.90;;;;;;5095197;28;20509;-65
2021/12/17 14:25:40;;;;;;;10.50;7.83;;;7.80;99.90;;;;;;5094847;28;20258;-66
2021/12/17 14:28:11;;;;;;;12.23;8.20;;;7.80;99.90;;;;;;5093164;28;20247;-65
2021/12/17 14:30:37;;;;;;;15.23;9.93;;;7.80;99.90;;;;;;5094392;28;20648;-66
2021/12/17 14:33:07;;;;;;;11.27;7.87;;;7.80;99.90;;;;;;5094345;28;20216;-65
2021/12/17 14:35:48;;;;;;;13.47;8.90;;;7.80;99.90;;;;;;5093003;28;20197;-66
2021/12/17 14:38:15;;;;;;;11.13;8.07;;;7.70;99.90;;;;;;5093055;28;20181;-65
2021/12/17 14:40:48;;;;;;;10.00;7.90;;;7.70;99.90;;;;;;5093026;28;20193;-65
2021/12/17 14:43:46;;;;;;;10.87;8.17;;;7.70;99.90;;;;;;5094515;28;20149;-65
2021/12/17 15:02:25;;;;;;;11.67;7.87;;;7.60;99.90;;;;;;5095991;28;20209;-65
2021/12/17 15:04:51;;;;;;;8.90;7.50;;;7.60;99.90;;;;;;5094129;28;20232;-65
2021/12/17 15:07:20;;;;;;;9.83;7.77;;;7.60;99.90;;;;;;5093880;28;20204;-64
2021/12/17 15:09:46;;;;;;;12.37;7.83;;;7.60;99.90;;;;;;5094061;28;20180;-64
2021/12/17 15:14:58;;;;;;;9.30;7.87;;;7.50;99.90;;;;;;5093928;28;20251;-64
2021/12/17 15:17:23;;;;;;;11.23;7.73;;;7.60;99.90;;;;;;5093654;28;20232;-64
2021/12/17 15:19:49;;;;;;;11.67;7.30;;;7.60;99.90;;;;;;5093958;28;20248;-65
2021/12/17 15:22:15;;;;;;;10.43;7.20;;;7.60;99.90;;;;;;5092118;28;20177;-65
2021/12/17 15:24:41;;;;;;;13.77;8.03;;;7.50;99.90;;;;;;5093488;28;20264;-66
2021/12/17 15:27:07;;;;;;;15.53;8.00;;;7.50;99.90;;;;;;5092260;28;20173;-66
2021/12/17 15:29:33;;;;;;;10.50;8.17;;;7.60;99.90;;;;;;5092280;28;20199;-65
2021/12/17 15:31:59;;;;;;;11.17;7.40;;;7.60;99.90;;;;;;5093403;28;20177;-65
2021/12/17 15:34:26;;;;;;;10.53;8.03;;;7.50;99.90;;;;;;5093523;28;20234;-65
2021/12/17 15:36:53;;;;;;;11.43;8.93;;;7.50;99.90;;;;;;5093849;28;20192;-65
2021/12/17 15:39:19;;;;;;;15.30;8.67;;;7.50;99.90;;;;;;5092270;28;20556;-65
2021/12/17 15:41:45;;;;;;;15.83;9.63;;;7.50;99.90;;;;;;5093809;28;20177;-65
2021/12/17 15:44:11;;;;;;;14.63;9.43;;;7.50;99.90;;;;;;5093992;28;20193;-65
2021/12/17 15:46:37;;;;;;;12.03;8.70;;;7.50;99.90;;;;;;5093634;28;20165;-66
2021/12/17 15:49:05;;;;;;;12.00;8.20;;;7.50;99.90;;;;;;5092627;28;20564;-67
2021/12/17 15:51:31;;;;;;;11.77;7.30;;;7.50;99.90;;;;;;5092070;28;20270;-66
2021/12/17 15:53:58;;;;;;;9.17;6.80;;;7.50;99.90;;;;;;5093897;28;20231;-65
2021/12/17 15:56:24;;;;;;;10.53;7.00;;;7.50;99.90;;;;;;5092113;28;20216;-65
2021/12/17 15:58:50;;;;;;;10.87;7.67;;;7.50;99.90;;;;;;5092058;28;20234;-65
2021/12/17 16:01:16;;;;;;;12.93;7.93;;;7.50;99.90;;;;;;5093745;28;20177;-65
2021/12/17 16:03:43;;;;;;;12.97;7.80;;;7.50;99.90;;;;;;5091944;28;20565;-65
2021/12/17 16:06:09;;;;;;;13.37;8.33;;;7.40;99.90;;;;;;5093570;28;20161;-65